Terminal Aerodrome Forecast
Issued by NWS Jackson, KY

Home | Current Version | Previous Version | Text Only | Print | Product List | Glossary On
Versions: 1 2 3 4 5 6 7 8 9 10 11 12 13 14
000
FTUS43 KJKL 270531
TAFLOZ
TAF
KLOZ 270531Z 2706/2806 21005KT P6SM OVC070
     FM271100 23005KT P6SM VCSH OVC015
     FM271600 24006KT P6SM OVC025
     FM271800 24007KT P6SM VCTS BKN040CB
     FM272000 25007KT P6SM -TSRA BKN060CB
     FM272300 VRB03KT P6SM BKN070=

USA.gov is the U.S. government's official web portal to all federal, state and local government web resources and services.